sensor_id;sensor_type;location;lat;lon;timestamp;pressure;altitude;pressure_sealevel;temperature;humidity
69173;BME280;56280;49.662;8.408;2023-02-23T00:02:15;100283.38;;;10.88;83.36
69173;BME280;56280;49.662;8.408;2023-02-23T00:04:41;100243.81;;;10.64;83.42
69173;BME280;56280;49.662;8.408;2023-02-23T00:07:07;100297.91;;;11.05;83.48
69173;BME280;56280;49.662;8.408;2023-02-23T00:09:42;100282.34;;;11.00;83.88
69173;BME280;56280;49.662;8.408;2023-02-23T00:12:10;100255.22;;;10.75;83.53
69173;BME280;56280;49.662;8.408;2023-02-23T00:14:39;100305.75;;;11.06;84.51
69173;BME280;56280;49.662;8.408;2023-02-23T00:17:05;100294.25;;;11.06;84.22
69173;BME280;56280;49.662;8.408;2023-02-23T00:19:38;100288.44;;;10.91;84.30
69173;BME280;56280;49.662;8.408;2023-02-23T00:22:06;100223.00;;;10.27;84.78
69173;BME280;56280;49.662;8.408;2023-02-23T00:24:31;100309.31;;;10.95;84.98
69173;BME280;56280;49.662;8.408;2023-02-23T00:27:20;100224.78;;;10.58;85.07
69173;BME280;56280;49.662;8.408;2023-02-23T00:29:50;100232.09;;;10.66;85.70
69173;BME280;56280;49.662;8.408;2023-02-23T00:32:18;100322.31;;;11.20;85.76
69173;BME280;56280;49.662;8.408;2023-02-23T00:34:47;100292.59;;;11.05;85.72
69173;BME280;56280;49.662;8.408;2023-02-23T00:37:21;100307.88;;;11.12;85.59
69173;BME280;56280;49.662;8.408;2023-02-23T00:39:49;100314.34;;;11.20;85.48
69173;BME280;56280;49.662;8.408;2023-02-23T00:42:19;100278.06;;;10.88;85.73
69173;BME280;56280;49.662;8.408;2023-02-23T00:44:49;100258.91;;;10.63;86.00
69173;BME280;56280;49.662;8.408;2023-02-23T00:47:24;100371.66;;;11.34;85.79
69173;BME280;56280;49.662;8.408;2023-02-23T00:49:49;100267.22;;;10.49;85.59
69173;BME280;56280;49.662;8.408;2023-02-23T00:52:20;100225.44;;;10.18;86.14
69173;BME280;56280;49.662;8.408;2023-02-23T00:54:46;100349.69;;;10.47;87.58
69173;BME280;56280;49.662;8.408;2023-02-23T00:57:11;100298.81;;;10.19;88.13
69173;BME280;56280;49.662;8.408;2023-02-23T00:59:36;100282.41;;;10.26;87.26
69173;BME280;56280;49.662;8.408;2023-02-23T01:02:02;100297.69;;;10.33;87.28
69173;BME280;56280;49.662;8.408;2023-02-23T01:04:27;100274.53;;;10.35;86.86
69173;BME280;56280;49.662;8.408;2023-02-23T01:06:53;100336.41;;;10.68;86.64
69173;BME280;56280;49.662;8.408;2023-02-23T01:09:21;100264.63;;;10.26;86.88
69173;BME280;56280;49.662;8.408;2023-02-23T01:11:52;100264.25;;;10.31;86.94
69173;BME280;56280;49.662;8.408;2023-02-23T01:14:17;100275.13;;;10.39;86.62
69173;BME280;56280;49.662;8.408;2023-02-23T01:16:46;100257.09;;;10.43;86.59
69173;BME280;56280;49.662;8.408;2023-02-23T01:19:11;100265.09;;;10.31;86.96
69173;BME280;56280;49.662;8.408;2023-02-23T01:21:41;100243.19;;;10.18;87.00
69173;BME280;56280;49.662;8.408;2023-02-23T01:24:07;100210.75;;;9.82;88.08
69173;BME280;56280;49.662;8.408;2023-02-23T01:26:35;100239.91;;;9.93;88.03
69173;BME280;56280;49.662;8.408;2023-02-23T01:29:05;100303.56;;;10.16;88.76
69173;BME280;56280;49.662;8.408;2023-02-23T01:31:40;100366.34;;;10.70;88.94
69173;BME280;56280;49.662;8.408;2023-02-23T01:34:08;100334.47;;;10.70;88.16
69173;BME280;56280;49.662;8.408;2023-02-23T01:36:40;100308.81;;;10.60;88.09
69173;BME280;56280;49.662;8.408;2023-02-23T01:39:11;100319.91;;;10.65;88.34
69173;BME280;56280;49.662;8.408;2023-02-23T01:41:42;100219.75;;;10.02;88.50
69173;BME280;56280;49.662;8.408;2023-02-23T01:46:38;100253.63;;;10.42;87.79
69173;BME280;56280;49.662;8.408;2023-02-23T01:49:06;100316.41;;;10.85;87.36
69173;BME280;56280;49.662;8.408;2023-02-23T01:51:37;100344.63;;;11.07;87.09
69173;BME280;56280;49.662;8.408;2023-02-23T01:54:17;100336.94;;;10.83;86.73
69173;BME280;56280;49.662;8.408;2023-02-23T01:56:46;100352.81;;;10.94;87.42
69173;BME280;56280;49.662;8.408;2023-02-23T01:59:24;100331.81;;;10.70;87.82
69173;BME280;56280;49.662;8.408;2023-02-23T02:01:53;100361.16;;;10.90;87.50
69173;BME280;56280;49.662;8.408;2023-02-23T02:04:19;100337.84;;;10.72;87.78
69173;BME280;56280;49.662;8.408;2023-02-23T02:06:48;100340.72;;;10.81;87.95
69173;BME280;56280;49.662;8.408;2023-02-23T02:09:18;100345.09;;;10.70;88.46
69173;BME280;56280;49.662;8.408;2023-02-23T02:11:45;100351.41;;;10.90;88.21
69173;BME280;56280;49.662;8.408;2023-02-23T02:14:18;100322.94;;;10.81;88.08
69173;BME280;56280;49.662;8.408;2023-02-23T02:16:57;100341.84;;;10.88;88.14
69173;BME280;56280;49.662;8.408;2023-02-23T02:26:17;100342.25;;;10.83;88.84
69173;BME280;56280;49.662;8.408;2023-02-23T02:31:21;100307.94;;;10.80;88.16
69173;BME280;56280;49.662;8.408;2023-02-23T02:39:41;100308.81;;;10.38;89.96
69173;BME280;56280;49.662;8.408;2023-02-23T02:42:36;100333.56;;;10.60;90.64
69173;BME280;56280;49.662;8.408;2023-02-23T02:45:33;100298.25;;;10.48;90.40
69173;BME280;56280;49.662;8.408;2023-02-23T02:48:19;100333.56;;;10.81;89.75
69173;BME280;56280;49.662;8.408;2023-02-23T02:50:52;100329.94;;;10.82;89.57
69173;BME280;56280;49.662;8.408;2023-02-23T02:53:40;100337.97;;;10.71;89.94
69173;BME280;56280;49.662;8.408;2023-02-23T02:56:10;100226.22;;;10.09;89.72
69173;BME280;56280;49.662;8.408;2023-02-23T02:58:44;100270.63;;;10.61;89.22
69173;BME280;56280;49.662;8.408;2023-02-23T03:01:15;100171.78;;;9.94;89.12
69173;BME280;56280;49.662;8.408;2023-02-23T03:04:22;100283.84;;;10.72;88.99
69173;BME280;56280;49.662;8.408;2023-02-23T03:07:14;100247.31;;;10.43;89.01
69173;BME280;56280;49.662;8.408;2023-02-23T03:19:33;100187.25;;;10.31;87.98
69173;BME280;56280;49.662;8.408;2023-02-23T03:22:46;100283.97;;;10.91;88.29
69173;BME280;56280;49.662;8.408;2023-02-23T03:26:17;100328.03;;;11.15;88.83
69173;BME280;56280;49.662;8.408;2023-02-23T03:32:24;100215.97;;;10.58;88.22
69173;BME280;56280;49.662;8.408;2023-02-23T03:35:26;100171.22;;;10.32;88.24
69173;BME280;56280;49.662;8.408;2023-02-23T03:38:21;100311.81;;;11.18;88.03
69173;BME280;56280;49.662;8.408;2023-02-23T03:41:16;100194.63;;;10.38;87.41
69173;BME280;56280;49.662;8.408;2023-02-23T03:44:14;100198.41;;;10.25;88.37
69173;BME280;56280;49.662;8.408;2023-02-23T03:47:03;100233.66;;;10.48;89.10
69173;BME280;56280;49.662;8.408;2023-02-23T03:49:52;100204.81;;;10.43;88.28
69173;BME280;56280;49.662;8.408;2023-02-23T03:52:47;100199.13;;;10.48;88.20
69173;BME280;56280;49.662;8.408;2023-02-23T03:55:42;100264.78;;;10.88;88.33
69173;BME280;56280;49.662;8.408;2023-02-23T03:58:32;100248.91;;;10.76;88.60
69173;BME280;56280;49.662;8.408;2023-02-23T04:01:19;100277.81;;;10.91;88.40
69173;BME280;56280;49.662;8.408;2023-02-23T04:04:09;100227.56;;;10.57;88.31
69173;BME280;56280;49.662;8.408;2023-02-23T04:06:56;100191.97;;;10.38;88.49
69173;BME280;56280;49.662;8.408;2023-02-23T04:09:41;100345.16;;;11.22;88.58
69173;BME280;56280;49.662;8.408;2023-02-23T04:15:55;100244.66;;;10.43;89.20
69173;BME280;56280;49.662;8.408;2023-02-23T04:18:24;100251.25;;;10.28;90.58
69173;BME280;56280;49.662;8.408;2023-02-23T04:20:51;100232.25;;;10.11;91.65
69173;BME280;56280;49.662;8.408;2023-02-23T04:23:19;100331.47;;;10.85;90.97
69173;BME280;56280;49.662;8.408;2023-02-23T04:25:47;100286.75;;;10.69;90.36
69173;BME280;56280;49.662;8.408;2023-02-23T04:28:18;100226.88;;;10.34;89.97
69173;BME280;56280;49.662;8.408;2023-02-23T04:30:46;100345.09;;;11.12;89.42
69173;BME280;56280;49.662;8.408;2023-02-23T04:33:22;100237.88;;;10.50;89.27
69173;BME280;56280;49.662;8.408;2023-02-23T04:35:54;100284.50;;;10.85;89.53
69173;BME280;56280;49.662;8.408;2023-02-23T04:38:23;100187.38;;;10.29;89.67
69173;BME280;56280;49.662;8.408;2023-02-23T04:40:52;100221.88;;;10.40;89.29
69173;BME280;56280;49.662;8.408;2023-02-23T04:43:23;100257.16;;;10.52;89.65
69173;BME280;56280;49.662;8.408;2023-02-23T04:45:56;100250.50;;;10.58;89.68
69173;BME280;56280;49.662;8.408;2023-02-23T04:48:25;100224.72;;;9.95;90.60
69173;BME280;56280;49.662;8.408;2023-02-23T04:50:59;100253.75;;;10.08;92.22
69173;BME280;56280;49.662;8.408;2023-02-23T04:53:27;100225.78;;;10.25;91.75
69173;BME280;56280;49.662;8.408;2023-02-23T04:55:56;100206.59;;;10.33;91.07
69173;BME280;56280;49.662;8.408;2023-02-23T04:58:21;100213.19;;;10.38;90.48
69173;BME280;56280;49.662;8.408;2023-02-23T05:00:52;100208.03;;;10.37;89.70
69173;BME280;56280;49.662;8.408;2023-02-23T05:03:23;100345.72;;;11.26;89.71
69173;BME280;56280;49.662;8.408;2023-02-23T05:05:48;100286.13;;;10.76;89.21
69173;BME280;56280;49.662;8.408;2023-02-23T05:08:22;100282.56;;;10.87;88.86
69173;BME280;56280;49.662;8.408;2023-02-23T05:10:50;100220.84;;;10.53;88.81
69173;BME280;56280;49.662;8.408;2023-02-23T05:13:15;100238.50;;;10.64;88.97
69173;BME280;56280;49.662;8.408;2023-02-23T05:15:43;100229.13;;;10.60;88.48
69173;BME280;56280;49.662;8.408;2023-02-23T05:18:09;100253.91;;;10.70;88.58
69173;BME280;56280;49.662;8.408;2023-02-23T05:20:44;100271.38;;;10.63;88.31
69173;BME280;56280;49.662;8.408;2023-02-23T05:23:13;100246.47;;;10.43;88.94
69173;BME280;56280;49.662;8.408;2023-02-23T05:25:41;100243.69;;;10.44;89.41
69173;BME280;56280;49.662;8.408;2023-02-23T05:28:07;100217.22;;;10.33;88.96
69173;BME280;56280;49.662;8.408;2023-02-23T05:30:33;100245.31;;;10.56;88.76
69173;BME280;56280;49.662;8.408;2023-02-23T05:33:00;100296.03;;;10.95;88.84
69173;BME280;56280;49.662;8.408;2023-02-23T05:35:29;100271.75;;;10.79;89.15
69173;BME280;56280;49.662;8.408;2023-02-23T05:38:02;100271.03;;;10.77;88.59
69173;BME280;56280;49.662;8.408;2023-02-23T05:40:27;100230.47;;;10.54;88.32
69173;BME280;56280;49.662;8.408;2023-02-23T05:42:57;100327.59;;;11.10;87.99
69173;BME280;56280;49.662;8.408;2023-02-23T05:45:32;100211.78;;;10.34;88.19
69173;BME280;56280;49.662;8.408;2023-02-23T05:48:00;100219.75;;;10.23;87.86
69173;BME280;56280;49.662;8.408;2023-02-23T05:50:25;100283.66;;;10.43;88.24
69173;BME280;56280;49.662;8.408;2023-02-23T05:52:56;100198.22;;;9.52;90.91
69173;BME280;56280;49.662;8.408;2023-02-23T05:55:22;100332.72;;;10.60;90.63
69173;BME280;56280;49.662;8.408;2023-02-23T05:57:56;100208.63;;;10.08;89.93
69173;BME280;56280;49.662;8.408;2023-02-23T06:00:23;100235.63;;;10.13;89.55
69173;BME280;56280;49.662;8.408;2023-02-23T06:02:51;100362.09;;;11.00;89.24
69173;BME280;56280;49.662;8.408;2023-02-23T06:05:20;100299.09;;;10.70;89.57
69173;BME280;56280;49.662;8.408;2023-02-23T06:07:45;100292.31;;;10.77;89.37
69173;BME280;56280;49.662;8.408;2023-02-23T06:10:11;100212.00;;;10.31;89.13
69173;BME280;56280;49.662;8.408;2023-02-23T06:12:36;100306.16;;;10.81;89.38
69173;BME280;56280;49.662;8.408;2023-02-23T06:15:04;100281.31;;;10.70;89.23
69173;BME280;56280;49.662;8.408;2023-02-23T06:17:30;100366.75;;;11.08;89.22
69173;BME280;56280;49.662;8.408;2023-02-23T06:19:58;100258.72;;;10.55;89.30
69173;BME280;56280;49.662;8.408;2023-02-23T06:22:26;100222.97;;;10.06;89.57
69173;BME280;56280;49.662;8.408;2023-02-23T06:25:00;100281.91;;;10.20;90.25
69173;BME280;56280;49.662;8.408;2023-02-23T06:27:29;100261.72;;;10.29;90.53
69173;BME280;56280;49.662;8.408;2023-02-23T06:29:57;100281.00;;;10.43;90.09
69173;BME280;56280;49.662;8.408;2023-02-23T06:32:25;100289.78;;;10.75;89.57
69173;BME280;56280;49.662;8.408;2023-02-23T06:34:56;100272.34;;;10.62;89.64
69173;BME280;56280;49.662;8.408;2023-02-23T06:37:22;100297.94;;;10.84;89.47
69173;BME280;56280;49.662;8.408;2023-02-23T06:39:50;100266.19;;;10.61;89.05
69173;BME280;56280;49.662;8.408;2023-02-23T06:42:18;100234.50;;;10.48;89.01
69173;BME280;56280;49.662;8.408;2023-02-23T06:44:51;100257.81;;;10.66;88.54
69173;BME280;56280;49.662;8.408;2023-02-23T06:47:24;100233.97;;;10.54;88.44
69173;BME280;56280;49.662;8.408;2023-02-23T06:49:49;100274.66;;;10.76;88.39
69173;BME280;56280;49.662;8.408;2023-02-23T06:52:24;100247.00;;;10.57;88.25
69173;BME280;56280;49.662;8.408;2023-02-23T06:54:59;100248.69;;;10.37;88.12
69173;BME280;56280;49.662;8.408;2023-02-23T07:00:09;100246.88;;;10.38;88.78
69173;BME280;56280;49.662;8.408;2023-02-23T07:02:39;100341.41;;;11.04;88.52
69173;BME280;56280;49.662;8.408;2023-02-23T07:05:05;100284.59;;;10.74;88.70
69173;BME280;56280;49.662;8.408;2023-02-23T07:07:42;100275.88;;;10.72;88.30
69173;BME280;56280;49.662;8.408;2023-02-23T07:10:12;100283.66;;;10.85;87.96
69173;BME280;56280;49.662;8.408;2023-02-23T07:12:42;100328.84;;;11.16;88.26
69173;BME280;56280;49.662;8.408;2023-02-23T07:15:28;100409.44;;;11.58;88.19
69173;BME280;56280;49.662;8.408;2023-02-23T07:17:56;100300.81;;;11.02;88.14
69173;BME280;56280;49.662;8.408;2023-02-23T07:20:31;100346.13;;;11.21;88.22
69173;BME280;56280;49.662;8.408;2023-02-23T07:22:58;100349.91;;;11.28;87.97
69173;BME280;56280;49.662;8.408;2023-02-23T07:25:33;100338.34;;;11.08;87.87
69173;BME280;56280;49.662;8.408;2023-02-23T07:27:58;100390.28;;;11.34;88.69
69173;BME280;56280;49.662;8.408;2023-02-23T07:30:33;100328.88;;;10.94;88.42
69173;BME280;56280;49.662;8.408;2023-02-23T07:32:58;100361.03;;;11.34;89.12
69173;BME280;56280;49.662;8.408;2023-02-23T07:35:32;100312.59;;;11.09;88.82
69173;BME280;56280;49.662;8.408;2023-02-23T07:37:58;100355.63;;;11.45;88.33
69173;BME280;56280;49.662;8.408;2023-02-23T07:40:31;100320.53;;;11.30;88.36
69173;BME280;56280;49.662;8.408;2023-02-23T07:42:56;100341.41;;;11.35;88.19
69173;BME280;56280;49.662;8.408;2023-02-23T07:45:32;100373.41;;;11.54;87.76
69173;BME280;56280;49.662;8.408;2023-02-23T07:48:15;100349.69;;;11.41;88.65
69173;BME280;56280;49.662;8.408;2023-02-23T07:50:53;100291.06;;;11.12;87.83
69173;BME280;56280;49.662;8.408;2023-02-23T07:53:18;100419.91;;;11.81;88.00
69173;BME280;56280;49.662;8.408;2023-02-23T07:55:56;100333.69;;;11.31;88.18
69173;BME280;56280;49.662;8.408;2023-02-23T07:58:33;100303.41;;;11.13;87.73
69173;BME280;56280;49.662;8.408;2023-02-23T08:00:58;100357.28;;;11.46;87.97
69173;BME280;56280;49.662;8.408;2023-02-23T08:03:29;100422.91;;;11.66;88.10
69173;BME280;56280;49.662;8.408;2023-02-23T08:05:54;100430.81;;;11.78;88.31
69173;BME280;56280;49.662;8.408;2023-02-23T08:08:22;100411.13;;;11.59;89.51
69173;BME280;56280;49.662;8.408;2023-02-23T08:10:58;100432.03;;;11.95;89.34
69173;BME280;56280;49.662;8.408;2023-02-23T08:13:29;100403.66;;;11.84;88.06
69173;BME280;56280;49.662;8.408;2023-02-23T08:15:56;100423.13;;;11.84;88.93
69173;BME280;56280;49.662;8.408;2023-02-23T08:18:29;100427.72;;;11.73;89.32
69173;BME280;56280;49.662;8.408;2023-02-23T08:20:59;100408.66;;;11.67;88.97
69173;BME280;56280;49.662;8.408;2023-02-23T08:23:25;100419.72;;;11.73;89.18
69173;BME280;56280;49.662;8.408;2023-02-23T08:25:53;100432.69;;;11.87;89.17
69173;BME280;56280;49.662;8.408;2023-02-23T08:28:18;100430.28;;;11.84;88.79
69173;BME280;56280;49.662;8.408;2023-02-23T08:30:44;100426.09;;;11.91;89.45
69173;BME280;56280;49.662;8.408;2023-02-23T08:33:12;100411.22;;;11.79;89.42
69173;BME280;56280;49.662;8.408;2023-02-23T08:35:37;100444.41;;;12.15;90.07
69173;BME280;56280;49.662;8.408;2023-02-23T08:38:02;100422.28;;;12.15;89.56
69173;BME280;56280;49.662;8.408;2023-02-23T08:40:27;100443.94;;;12.51;88.03
69173;BME280;56280;49.662;8.408;2023-02-23T08:42:53;100435.91;;;12.31;88.89
69173;BME280;56280;49.662;8.408;2023-02-23T08:45:19;100436.94;;;12.59;87.93
69173;BME280;56280;49.662;8.408;2023-02-23T08:47:44;100425.47;;;12.69;86.65
69173;BME280;56280;49.662;8.408;2023-02-23T08:50:11;100439.06;;;12.85;86.23
69173;BME280;56280;49.662;8.408;2023-02-23T08:52:39;100403.41;;;12.67;86.86
69173;BME280;56280;49.662;8.408;2023-02-23T08:55:06;100444.38;;;13.14;85.25
69173;BME280;56280;49.662;8.408;2023-02-23T08:57:33;100444.53;;;13.32;85.77
69173;BME280;56280;49.662;8.408;2023-02-23T08:59:58;100410.16;;;12.81;85.50
69173;BME280;56280;49.662;8.408;2023-02-23T09:02:27;100331.16;;;12.89;85.36
69173;BME280;56280;49.662;8.408;2023-02-23T09:04:53;100444.25;;;13.16;83.86
69173;BME280;56280;49.662;8.408;2023-02-23T09:07:22;100386.38;;;13.26;83.92
69173;BME280;56280;49.662;8.408;2023-02-23T09:09:58;100338.97;;;13.01;82.55
69173;BME280;56280;49.662;8.408;2023-02-23T09:12:29;100323.44;;;12.96;81.90
69173;BME280;56280;49.662;8.408;2023-02-23T09:14:57;100303.09;;;12.95;81.89
69173;BME280;56280;49.662;8.408;2023-02-23T09:17:22;100318.97;;;13.34;81.52
69173;BME280;56280;49.662;8.408;2023-02-23T09:19:49;100331.34;;;13.35;79.66
69173;BME280;56280;49.662;8.408;2023-02-23T09:22:17;100338.09;;;13.67;80.25
69173;BME280;56280;49.662;8.408;2023-02-23T09:24:50;100372.06;;;14.02;79.79
69173;BME280;56280;49.662;8.408;2023-02-23T09:27:15;100369.34;;;14.30;79.86
69173;BME280;56280;49.662;8.408;2023-02-23T09:29:44;100327.13;;;14.34;78.46
69173;BME280;56280;49.662;8.408;2023-02-23T09:32:12;100341.72;;;14.39;76.33
69173;BME280;56280;49.662;8.408;2023-02-23T09:34:37;100399.78;;;14.65;75.97
69173;BME280;56280;49.662;8.408;2023-02-23T09:37:08;100339.03;;;14.39;75.75
69173;BME280;56280;49.662;8.408;2023-02-23T09:39:33;100355.38;;;14.36;73.77
69173;BME280;56280;49.662;8.408;2023-02-23T09:42:14;100374.09;;;14.36;73.37
69173;BME280;56280;49.662;8.408;2023-02-23T09:45:03;100457.22;;;14.79;74.23
69173;BME280;56280;49.662;8.408;2023-02-23T09:47:58;100453.34;;;14.91;74.01
69173;BME280;56280;49.662;8.408;2023-02-23T09:50:51;100409.09;;;14.61;72.83
69173;BME280;56280;49.662;8.408;2023-02-23T09:53:38;100439.38;;;14.80;72.90
69173;BME280;56280;49.662;8.408;2023-02-23T09:56:12;100358.06;;;13.91;73.00
69173;BME280;56280;49.662;8.408;2023-02-23T09:58:42;100418.78;;;14.44;73.33
69173;BME280;56280;49.662;8.408;2023-02-23T10:01:34;100388.50;;;14.26;72.57
69173;BME280;56280;49.662;8.408;2023-02-23T10:06:58;100425.03;;;14.53;71.21
69173;BME280;56280;49.662;8.408;2023-02-23T10:15:14;100473.81;;;15.01;69.97
69173;BME280;56280;49.662;8.408;2023-02-23T10:20:57;100476.00;;;15.23;67.63
69173;BME280;56280;49.662;8.408;2023-02-23T10:26:06;100333.25;;;14.44;69.42
69173;BME280;56280;49.662;8.408;2023-02-23T10:28:40;100423.38;;;15.06;69.18
69173;BME280;56280;49.662;8.408;2023-02-23T10:37:15;100430.44;;;14.43;68.68
69173;BME280;56280;49.662;8.408;2023-02-23T10:39:41;100484.25;;;13.45;71.70
69173;BME280;56280;49.662;8.408;2023-02-23T10:42:14;100469.94;;;14.21;71.13
69173;BME280;56280;49.662;8.408;2023-02-23T10:44:42;100480.75;;;14.93;68.26
69173;BME280;56280;49.662;8.408;2023-02-23T10:47:15;100466.09;;;14.80;68.37
69173;BME280;56280;49.662;8.408;2023-02-23T10:49:44;100463.97;;;14.65;69.12
69173;BME280;56280;49.662;8.408;2023-02-23T10:52:12;100471.97;;;14.83;66.96
69173;BME280;56280;49.662;8.408;2023-02-23T10:54:46;100468.88;;;14.60;68.47
69173;BME280;56280;49.662;8.408;2023-02-23T10:57:28;100462.44;;;14.35;69.52
69173;BME280;56280;49.662;8.408;2023-02-23T11:02:43;100480.81;;;15.20;66.21
69173;BME280;56280;49.662;8.408;2023-02-23T11:05:48;100452.69;;;14.16;66.01
69173;BME280;56280;49.662;8.408;2023-02-23T11:10:40;100460.09;;;13.94;68.60
69173;BME280;56280;49.662;8.408;2023-02-23T11:13:20;100466.78;;;14.64;65.99
69173;BME280;56280;49.662;8.408;2023-02-23T11:15:46;100444.63;;;13.98;66.69
69173;BME280;56280;49.662;8.408;2023-02-23T11:18:19;100486.34;;;13.52;68.56
69173;BME280;56280;49.662;8.408;2023-02-23T11:20:46;100449.50;;;14.30;67.77
69173;BME280;56280;49.662;8.408;2023-02-23T11:23:28;100472.50;;;14.13;70.77
69173;BME280;56280;49.662;8.408;2023-02-23T11:26:01;100444.34;;;14.47;67.80
69173;BME280;56280;49.662;8.408;2023-02-23T11:28:33;100446.06;;;14.84;66.74
69173;BME280;56280;49.662;8.408;2023-02-23T11:31:08;100467.31;;;15.03;64.67
69173;BME280;56280;49.662;8.408;2023-02-23T11:33:37;100453.56;;;14.80;64.45
69173;BME280;56280;49.662;8.408;2023-02-23T11:38:59;100466.84;;;14.90;65.73
69173;BME280;56280;49.662;8.408;2023-02-23T11:41:25;100466.38;;;15.12;64.94
69173;BME280;56280;49.662;8.408;2023-02-23T11:43:55;100432.28;;;15.14;62.84
69173;BME280;56280;49.662;8.408;2023-02-23T11:46:20;100463.78;;;15.03;64.15
69173;BME280;56280;49.662;8.408;2023-02-23T11:48:49;100447.38;;;14.34;68.54
69173;BME280;56280;49.662;8.408;2023-02-23T11:51:30;100445.38;;;15.00;64.30
69173;BME280;56280;49.662;8.408;2023-02-23T11:53:57;100453.91;;;15.21;64.41
69173;BME280;56280;49.662;8.408;2023-02-23T11:56:24;100458.06;;;15.42;63.96
69173;BME280;56280;49.662;8.408;2023-02-23T11:58:56;100437.44;;;15.34;61.52
69173;BME280;56280;49.662;8.408;2023-02-23T12:03:59;100442.88;;;15.24;62.92
69173;BME280;56280;49.662;8.408;2023-02-23T12:06:35;100446.75;;;15.48;62.24
69173;BME280;56280;49.662;8.408;2023-02-23T12:12:16;100427.81;;;15.76;62.35
69173;BME280;56280;49.662;8.408;2023-02-23T12:17:26;100432.84;;;16.05;58.95
69173;BME280;56280;49.662;8.408;2023-02-23T12:20:12;100439.19;;;15.96;58.99
69173;BME280;56280;49.662;8.408;2023-02-23T12:22:46;100404.63;;;15.84;61.25
69173;BME280;56280;49.662;8.408;2023-02-23T12:25:37;100438.09;;;16.15;60.14
69173;BME280;56280;49.662;8.408;2023-02-23T12:28:36;100442.34;;;16.42;57.94
69173;BME280;56280;49.662;8.408;2023-02-23T12:34:10;100403.72;;;15.76;58.85
69173;BME280;56280;49.662;8.408;2023-02-23T12:36:43;100423.22;;;15.86;58.54
69173;BME280;56280;49.662;8.408;2023-02-23T12:39:34;100422.66;;;15.48;59.79
69173;BME280;56280;49.662;8.408;2023-02-23T12:42:06;100427.91;;;15.31;61.13
69173;BME280;56280;49.662;8.408;2023-02-23T12:44:43;100422.78;;;15.73;60.55
69173;BME280;56280;49.662;8.408;2023-02-23T12:47:26;100417.59;;;15.97;60.63
69173;BME280;56280;49.662;8.408;2023-02-23T12:50:05;100419.03;;;16.26;58.64
69173;BME280;56280;49.662;8.408;2023-02-23T12:52:43;100408.50;;;16.33;60.24
69173;BME280;56280;49.662;8.408;2023-02-23T12:55:11;100405.31;;;16.37;59.24
69173;BME280;56280;49.662;8.408;2023-02-23T12:57:57;100405.84;;;16.49;58.29
69173;BME280;56280;49.662;8.408;2023-02-23T13:00:41;100398.63;;;16.50;58.71
69173;BME280;56280;49.662;8.408;2023-02-23T13:03:31;100411.91;;;15.40;59.48
69173;BME280;56280;49.662;8.408;2023-02-23T13:06:22;100423.91;;;15.62;60.45
69173;BME280;56280;49.662;8.408;2023-02-23T13:11:44;100407.41;;;15.75;59.57
69173;BME280;56280;49.662;8.408;2023-02-23T13:14:26;100413.22;;;15.96;58.61
69173;BME280;56280;49.662;8.408;2023-02-23T13:17:03;100410.91;;;15.41;60.67
69173;BME280;56280;49.662;8.408;2023-02-23T13:19:38;100405.06;;;14.29;64.63
69173;BME280;56280;49.662;8.408;2023-02-23T13:24:59;100401.22;;;14.14;67.65
69173;BME280;56280;49.662;8.408;2023-02-23T13:27:33;100392.56;;;15.02;63.76
69173;BME280;56280;49.662;8.408;2023-02-23T13:29:58;100399.84;;;15.44;62.34
69173;BME280;56280;49.662;8.408;2023-02-23T13:32:26;100399.22;;;15.50;61.63
69173;BME280;56280;49.662;8.408;2023-02-23T13:35:00;100413.63;;;14.61;64.04
69173;BME280;56280;49.662;8.408;2023-02-23T13:37:38;100412.72;;;14.42;66.15
69173;BME280;56280;49.662;8.408;2023-02-23T13:40:14;100411.59;;;15.17;64.45
69173;BME280;56280;49.662;8.408;2023-02-23T13:42:47;100406.75;;;15.20;62.89
69173;BME280;56280;49.662;8.408;2023-02-23T13:45:39;100414.06;;;14.74;63.41
69173;BME280;56280;49.662;8.408;2023-02-23T13:51:04;100403.88;;;14.77;65.19
69173;BME280;56280;49.662;8.408;2023-02-23T13:53:39;100413.84;;;15.29;62.33
69173;BME280;56280;49.662;8.408;2023-02-23T13:56:10;100405.72;;;14.59;62.73
69173;BME280;56280;49.662;8.408;2023-02-23T13:58:45;100406.19;;;15.35;63.09
69173;BME280;56280;49.662;8.408;2023-02-23T14:01:19;100404.31;;;15.61;60.96
69173;BME280;56280;49.662;8.408;2023-02-23T14:03:53;100399.75;;;15.80;59.41
69173;BME280;56280;49.662;8.408;2023-02-23T14:06:22;100413.53;;;15.93;60.65
69173;BME280;56280;49.662;8.408;2023-02-23T14:08:52;100412.78;;;14.50;63.16
69173;BME280;56280;49.662;8.408;2023-02-23T14:11:37;100417.78;;;14.99;64.30
69173;BME280;56280;49.662;8.408;2023-02-23T14:14:06;100386.38;;;15.54;62.27
69173;BME280;56280;49.662;8.408;2023-02-23T14:16:31;100399.91;;;15.78;60.33
69173;BME280;56280;49.662;8.408;2023-02-23T14:21:56;100389.97;;;16.05;58.95
69173;BME280;56280;49.662;8.408;2023-02-23T14:24:25;100402.25;;;16.24;58.35
69173;BME280;56280;49.662;8.408;2023-02-23T14:29:39;100405.53;;;15.14;61.16
69173;BME280;56280;49.662;8.408;2023-02-23T14:34:52;100408.81;;;15.87;59.81
69173;BME280;56280;49.662;8.408;2023-02-23T14:37:36;100417.63;;;16.06;59.60
69173;BME280;56280;49.662;8.408;2023-02-23T14:40:17;100396.94;;;15.90;59.09
69173;BME280;56280;49.662;8.408;2023-02-23T14:42:46;100403.50;;;15.69;59.89
69173;BME280;56280;49.662;8.408;2023-02-23T14:45:20;100390.69;;;15.46;60.76
69173;BME280;56280;49.662;8.408;2023-02-23T14:47:51;100401.94;;;15.58;59.95
69173;BME280;56280;49.662;8.408;2023-02-23T14:50:24;100399.00;;;15.69;60.50
69173;BME280;56280;49.662;8.408;2023-02-23T14:52:52;100373.06;;;15.09;60.67
69173;BME280;56280;49.662;8.408;2023-02-23T14:55:27;100376.94;;;15.15;61.07